sensor_id;sensor_type;location;lat;lon;timestamp;P1;durP1;ratioP1;P2;durP2;ratioP2
59653;SDS011;45496;52.010;5.418;2022-07-06T00:00:28;3.2;;;1.6;;
59653;SDS011;45496;52.010;5.418;2022-07-06T00:02:14;3.3;;;1.8;;
59653;SDS011;45496;52.010;5.418;2022-07-06T00:04:02;3.5;;;1.8;;
59653;SDS011;45496;52.010;5.418;2022-07-06T00:05:49;6.3;;;1.8;;
59653;SDS011;45496;52.010;5.418;2022-07-06T00:09:21;3.6;;;1.7;;
59653;SDS011;45496;52.010;5.418;2022-07-06T00:11:07;4.7;;;2.0;;
59653;SDS011;45496;52.010;5.418;2022-07-06T00:12:53;4.5;;;2.0;;
59653;SDS011;45496;52.010;5.418;2022-07-06T00:14:39;4.2;;;2.0;;
59653;SDS011;45496;52.010;5.418;2022-07-06T00:16:27;3.0;;;1.8;;
59653;SDS011;45496;52.010;5.418;2022-07-06T00:18:14;3.9;;;1.7;;
59653;SDS011;45496;52.010;5.418;2022-07-06T00:21:46;3.1;;;2.0;;
59653;SDS011;45496;52.010;5.418;2022-07-06T00:23:32;6.4;;;1.9;;
59653;SDS011;45496;52.010;5.418;2022-07-06T00:25:19;4.41;;;1.9;;
59653;SDS011;45496;52.010;5.418;2022-07-06T00:27:06;5.0;;;1.8;;
59653;SDS011;45496;52.010;5.418;2022-07-06T00:28:53;3.6;;;1.8;;
59653;SDS011;45496;52.010;5.418;2022-07-06T00:32:27;4.0;;;1.9;;
59653;SDS011;45496;52.010;5.418;2022-07-06T00:34:14;4.2;;;1.8;;
59653;SDS011;45496;52.010;5.418;2022-07-06T00:36:01;4.7;;;2.0;;
59653;SDS011;45496;52.010;5.418;2022-07-06T00:37:48;4.1;;;1.9;;
59653;SDS011;45496;52.010;5.418;2022-07-06T00:39:34;4.1;;;1.9;;
59653;SDS011;45496;52.010;5.418;2022-07-06T00:41:20;6.5;;;1.9;;
59653;SDS011;45496;52.010;5.418;2022-07-06T00:44:53;3.7;;;1.8;;
59653;SDS011;45496;52.010;5.418;2022-07-06T00:46:40;4.2;;;1.5;;
59653;SDS011;45496;52.010;5.418;2022-07-06T00:48:26;5.2;;;1.6;;
59653;SDS011;45496;52.010;5.418;2022-07-06T00:50:17;2.6;;;2.0;;
59653;SDS011;45496;52.010;5.418;2022-07-06T00:52:05;4.2;;;2.0;;
59653;SDS011;45496;52.010;5.418;2022-07-06T00:53:53;4.3;;;2.1;;
59653;SDS011;45496;52.010;5.418;2022-07-06T00:57:31;3.3;;;2.0;;
59653;SDS011;45496;52.010;5.418;2022-07-06T00:59:17;4.3;;;2.21;;
59653;SDS011;45496;52.010;5.418;2022-07-06T01:01:04;3.2;;;1.9;;
59653;SDS011;45496;52.010;5.418;2022-07-06T01:02:51;3.0;;;1.9;;
59653;SDS011;45496;52.010;5.418;2022-07-06T01:04:39;3.0;;;1.8;;
59653;SDS011;45496;52.010;5.418;2022-07-06T01:06:25;2.6;;;1.7;;
59653;SDS011;45496;52.010;5.418;2022-07-06T01:09:59;6.4;;;1.9;;
59653;SDS011;45496;52.010;5.418;2022-07-06T01:11:47;3.1;;;1.7;;
59653;SDS011;45496;52.010;5.418;2022-07-06T01:13:33;4.61;;;2.0;;
59653;SDS011;45496;52.010;5.418;2022-07-06T01:15:21;4.3;;;2.0;;
59653;SDS011;45496;52.010;5.418;2022-07-06T01:17:11;6.3;;;2.31;;
59653;SDS011;45496;52.010;5.418;2022-07-06T01:18:59;6.8;;;2.0;;
59653;SDS011;45496;52.010;5.418;2022-07-06T01:22:31;3.9;;;1.7;;
59653;SDS011;45496;52.010;5.418;2022-07-06T01:24:18;4.41;;;2.1;;
59653;SDS011;45496;52.010;5.418;2022-07-06T01:26:04;4.3;;;1.6;;
59653;SDS011;45496;52.010;5.418;2022-07-06T01:27:50;5.0;;;1.7;;
59653;SDS011;45496;52.010;5.418;2022-07-06T01:29:36;5.5;;;2.0;;
59653;SDS011;45496;52.010;5.418;2022-07-06T01:33:11;3.8;;;1.6;;
59653;SDS011;45496;52.010;5.418;2022-07-06T01:34:58;6.2;;;1.7;;
59653;SDS011;45496;52.010;5.418;2022-07-06T01:36:45;3.8;;;1.5;;
59653;SDS011;45496;52.010;5.418;2022-07-06T01:38:32;4.5;;;1.9;;
59653;SDS011;45496;52.010;5.418;2022-07-06T01:40:29;3.8;;;1.7;;
59653;SDS011;45496;52.010;5.418;2022-07-06T01:42:17;5.4;;;1.9;;
59653;SDS011;45496;52.010;5.418;2022-07-06T01:44:04;4.41;;;1.8;;
59653;SDS011;45496;52.010;5.418;2022-07-06T01:47:38;5.4;;;1.5;;
59653;SDS011;45496;52.010;5.418;2022-07-06T01:49:24;6.1;;;1.6;;
59653;SDS011;45496;52.010;5.418;2022-07-06T01:51:11;4.91;;;1.8;;
59653;SDS011;45496;52.010;5.418;2022-07-06T01:52:58;3.7;;;1.9;;
59653;SDS011;45496;52.010;5.418;2022-07-06T01:54:46;4.1;;;1.6;;
59653;SDS011;45496;52.010;5.418;2022-07-06T01:58:18;4.0;;;1.7;;
59653;SDS011;45496;52.010;5.418;2022-07-06T02:00:05;5.11;;;1.9;;
59653;SDS011;45496;52.010;5.418;2022-07-06T02:01:54;5.0;;;1.8;;
59653;SDS011;45496;52.010;5.418;2022-07-06T02:03:41;4.7;;;1.9;;
59653;SDS011;45496;52.010;5.418;2022-07-06T02:05:28;5.11;;;1.8;;
59653;SDS011;45496;52.010;5.418;2022-07-06T02:07:14;4.1;;;1.8;;
59653;SDS011;45496;52.010;5.418;2022-07-06T02:10:47;3.6;;;2.0;;
59653;SDS011;45496;52.010;5.418;2022-07-06T02:12:34;7.5;;;2.4;;
59653;SDS011;45496;52.010;5.418;2022-07-06T02:14:20;7.5;;;2.4;;
59653;SDS011;45496;52.010;5.418;2022-07-06T02:16:06;3.6;;;1.9;;
59653;SDS011;45496;52.010;5.418;2022-07-06T02:17:53;5.11;;;1.9;;
59653;SDS011;45496;52.010;5.418;2022-07-06T02:23:12;4.8;;;2.1;;
59653;SDS011;45496;52.010;5.418;2022-07-06T02:24:59;6.0;;;2.0;;
59653;SDS011;45496;52.010;5.418;2022-07-06T02:26:46;4.5;;;1.7;;
59653;SDS011;45496;52.010;5.418;2022-07-06T02:28:33;4.5;;;1.7;;
59653;SDS011;45496;52.010;5.418;2022-07-06T02:30:20;3.2;;;1.9;;
59653;SDS011;45496;52.010;5.418;2022-07-06T02:32:07;4.8;;;2.1;;
59653;SDS011;45496;52.010;5.418;2022-07-06T02:35:42;5.8;;;2.0;;
59653;SDS011;45496;52.010;5.418;2022-07-06T02:37:29;2.8;;;1.8;;
59653;SDS011;45496;52.010;5.418;2022-07-06T02:39:15;5.6;;;1.8;;
59653;SDS011;45496;52.010;5.418;2022-07-06T02:41:01;4.5;;;2.0;;
59653;SDS011;45496;52.010;5.418;2022-07-06T02:42:49;5.6;;;2.0;;
59653;SDS011;45496;52.010;5.418;2022-07-06T02:46:21;4.5;;;2.0;;
59653;SDS011;45496;52.010;5.418;2022-07-06T02:48:07;4.5;;;2.0;;
59653;SDS011;45496;52.010;5.418;2022-07-06T02:49:53;5.6;;;2.31;;
59653;SDS011;45496;52.010;5.418;2022-07-06T02:51:40;3.8;;;2.0;;
59653;SDS011;45496;52.010;5.418;2022-07-06T02:53:27;3.6;;;2.5;;
59653;SDS011;45496;52.010;5.418;2022-07-06T02:55:13;4.91;;;2.0;;
59653;SDS011;45496;52.010;5.418;2022-07-06T02:58:45;3.3;;;1.9;;
59653;SDS011;45496;52.010;5.418;2022-07-06T03:00:32;4.91;;;2.21;;
59653;SDS011;45496;52.010;5.418;2022-07-06T03:02:19;4.1;;;2.21;;
59653;SDS011;45496;52.010;5.418;2022-07-06T03:04:06;8.4;;;2.4;;
59653;SDS011;45496;52.010;5.418;2022-07-06T03:05:52;3.8;;;2.21;;
59653;SDS011;45496;52.010;5.418;2022-07-06T03:09:25;3.9;;;2.21;;
59653;SDS011;45496;52.010;5.418;2022-07-06T03:11:13;6.3;;;2.5;;
59653;SDS011;45496;52.010;5.418;2022-07-06T03:12:59;3.2;;;2.31;;
59653;SDS011;45496;52.010;5.418;2022-07-06T03:14:45;5.11;;;2.4;;
59653;SDS011;45496;52.010;5.418;2022-07-06T03:16:31;4.41;;;2.31;;
59653;SDS011;45496;52.010;5.418;2022-07-06T03:18:18;4.61;;;2.21;;
59653;SDS011;45496;52.010;5.418;2022-07-06T03:21:52;5.4;;;2.4;;
59653;SDS011;45496;52.010;5.418;2022-07-06T03:23:39;4.91;;;2.5;;
59653;SDS011;45496;52.010;5.418;2022-07-06T03:25:25;8.5;;;2.6;;
59653;SDS011;45496;52.010;5.418;2022-07-06T03:27:11;5.4;;;2.4;;
59653;SDS011;45496;52.010;5.418;2022-07-06T03:28:57;4.0;;;2.5;;
59653;SDS011;45496;52.010;5.418;2022-07-06T03:30:43;5.0;;;2.7;;
59653;SDS011;45496;52.010;5.418;2022-07-06T03:34:18;6.1;;;2.8;;
59653;SDS011;45496;52.010;5.418;2022-07-06T03:36:05;5.3;;;2.9;;
59653;SDS011;45496;52.010;5.418;2022-07-06T03:37:52;6.7;;;2.7;;
59653;SDS011;45496;52.010;5.418;2022-07-06T03:39:38;4.41;;;2.1;;
59653;SDS011;45496;52.010;5.418;2022-07-06T03:41:25;6.4;;;2.4;;
59653;SDS011;45496;52.010;5.418;2022-07-06T03:44:58;5.7;;;2.9;;
59653;SDS011;45496;52.010;5.418;2022-07-06T03:46:44;4.41;;;2.4;;
59653;SDS011;45496;52.010;5.418;2022-07-06T03:48:31;5.4;;;2.4;;
59653;SDS011;45496;52.010;5.418;2022-07-06T03:50:18;4.5;;;2.31;;
59653;SDS011;45496;52.010;5.418;2022-07-06T03:52:05;4.5;;;2.31;;
59653;SDS011;45496;52.010;5.418;2022-07-06T03:53:51;4.2;;;2.5;;
59653;SDS011;45496;52.010;5.418;2022-07-06T03:57:25;10.3;;;2.5;;
59653;SDS011;45496;52.010;5.418;2022-07-06T03:59:11;4.61;;;2.4;;
59653;SDS011;45496;52.010;5.418;2022-07-06T04:00:59;3.9;;;2.4;;
59653;SDS011;45496;52.010;5.418;2022-07-06T04:02:46;4.41;;;2.4;;
59653;SDS011;45496;52.010;5.418;2022-07-06T04:04:33;3.2;;;2.21;;
59653;SDS011;45496;52.010;5.418;2022-07-06T04:06:20;4.5;;;2.1;;
59653;SDS011;45496;52.010;5.418;2022-07-06T04:09:53;7.6;;;2.8;;
59653;SDS011;45496;52.010;5.418;2022-07-06T04:11:41;4.1;;;2.1;;
59653;SDS011;45496;52.010;5.418;2022-07-06T04:13:27;4.8;;;2.31;;
59653;SDS011;45496;52.010;5.418;2022-07-06T04:15:13;4.41;;;2.21;;
59653;SDS011;45496;52.010;5.418;2022-07-06T04:17:51;3.8;;;2.21;;
59653;SDS011;45496;52.010;5.418;2022-07-06T04:19:37;4.91;;;2.21;;
59653;SDS011;45496;52.010;5.418;2022-07-06T04:21:24;4.3;;;2.5;;
59653;SDS011;45496;52.010;5.418;2022-07-06T04:23:10;5.4;;;2.5;;
59653;SDS011;45496;52.010;5.418;2022-07-06T04:26:43;5.3;;;2.4;;
59653;SDS011;45496;52.010;5.418;2022-07-06T04:28:29;4.8;;;2.6;;
59653;SDS011;45496;52.010;5.418;2022-07-06T04:30:16;4.5;;;1.9;;
59653;SDS011;45496;52.010;5.418;2022-07-06T04:32:02;4.3;;;2.21;;
59653;SDS011;45496;52.010;5.418;2022-07-06T04:33:49;4.2;;;2.1;;
59653;SDS011;45496;52.010;5.418;2022-07-06T04:35:35;5.0;;;2.1;;
59653;SDS011;45496;52.010;5.418;2022-07-06T04:39:08;3.9;;;2.0;;
59653;SDS011;45496;52.010;5.418;2022-07-06T04:40:55;4.3;;;2.1;;
59653;SDS011;45496;52.010;5.418;2022-07-06T04:42:42;4.41;;;2.31;;
59653;SDS011;45496;52.010;5.418;2022-07-06T04:44:29;6.2;;;2.31;;
59653;SDS011;45496;52.010;5.418;2022-07-06T04:46:16;5.4;;;2.4;;
59653;SDS011;45496;52.010;5.418;2022-07-06T04:49:50;4.0;;;2.21;;
59653;SDS011;45496;52.010;5.418;2022-07-06T04:51:36;7.4;;;2.31;;
59653;SDS011;45496;52.010;5.418;2022-07-06T04:53:23;4.5;;;2.0;;
59653;SDS011;45496;52.010;5.418;2022-07-06T04:55:10;3.3;;;2.1;;
59653;SDS011;45496;52.010;5.418;2022-07-06T04:56:57;5.2;;;2.1;;
59653;SDS011;45496;52.010;5.418;2022-07-06T04:58:43;5.11;;;2.21;;
59653;SDS011;45496;52.010;5.418;2022-07-06T05:02:16;6.4;;;2.1;;
59653;SDS011;45496;52.010;5.418;2022-07-06T05:04:03;4.8;;;2.31;;
59653;SDS011;45496;52.010;5.418;2022-07-06T05:05:50;5.11;;;2.7;;
59653;SDS011;45496;52.010;5.418;2022-07-06T05:07:39;4.1;;;1.7;;
59653;SDS011;45496;52.010;5.418;2022-07-06T05:09:25;4.0;;;2.21;;
59653;SDS011;45496;52.010;5.418;2022-07-06T05:11:12;4.7;;;1.9;;
59653;SDS011;45496;52.010;5.418;2022-07-06T05:14:44;8.31;;;2.0;;
59653;SDS011;45496;52.010;5.418;2022-07-06T05:16:30;4.41;;;1.7;;
59653;SDS011;45496;52.010;5.418;2022-07-06T05:18:16;5.11;;;2.21;;
59653;SDS011;45496;52.010;5.418;2022-07-06T05:20:04;3.9;;;1.9;;
59653;SDS011;45496;52.010;5.418;2022-07-06T05:21:51;3.1;;;1.6;;
59653;SDS011;45496;52.010;5.418;2022-07-06T05:25:25;3.7;;;1.6;;
59653;SDS011;45496;52.010;5.418;2022-07-06T05:27:11;5.2;;;1.8;;
59653;SDS011;45496;52.010;5.418;2022-07-06T05:28:57;3.7;;;2.0;;
59653;SDS011;45496;52.010;5.418;2022-07-06T05:30:43;4.5;;;1.7;;
59653;SDS011;45496;52.010;5.418;2022-07-06T05:32:30;6.1;;;1.9;;
59653;SDS011;45496;52.010;5.418;2022-07-06T05:34:16;2.9;;;1.6;;
59653;SDS011;45496;52.010;5.418;2022-07-06T05:37:50;4.3;;;2.0;;
59653;SDS011;45496;52.010;5.418;2022-07-06T05:39:37;4.8;;;1.8;;
59653;SDS011;45496;52.010;5.418;2022-07-06T05:41:24;3.0;;;1.8;;
59653;SDS011;45496;52.010;5.418;2022-07-06T05:43:11;4.5;;;1.9;;
59653;SDS011;45496;52.010;5.418;2022-07-06T05:44:57;4.3;;;1.5;;
59653;SDS011;45496;52.010;5.418;2022-07-06T05:46:43;4.7;;;1.5;;
59653;SDS011;45496;52.010;5.418;2022-07-06T05:51:33;6.4;;;2.0;;
59653;SDS011;45496;52.010;5.418;2022-07-06T05:53:20;3.8;;;1.5;;
59653;SDS011;45496;52.010;5.418;2022-07-06T05:55:07;3.3;;;1.6;;
59653;SDS011;45496;52.010;5.418;2022-07-06T05:58:40;4.5;;;1.6;;
59653;SDS011;45496;52.010;5.418;2022-07-06T06:00:27;4.2;;;1.3;;
59653;SDS011;45496;52.010;5.418;2022-07-06T06:02:15;6.5;;;1.8;;
59653;SDS011;45496;52.010;5.418;2022-07-06T06:04:02;3.5;;;1.3;;
59653;SDS011;45496;52.010;5.418;2022-07-06T06:05:49;4.41;;;1.5;;
59653;SDS011;45496;52.010;5.418;2022-07-06T06:29:05;3.4;;;1.0;;
59653;SDS011;45496;52.010;5.418;2022-07-06T06:30:51;2.4;;;1.0;;
59653;SDS011;45496;52.010;5.418;2022-07-06T06:34:24;3.5;;;0.9;;
59653;SDS011;45496;52.010;5.418;2022-07-06T06:36:11;3.8;;;0.9;;
59653;SDS011;45496;52.010;5.418;2022-07-06T06:37:57;3.8;;;0.9;;
59653;SDS011;45496;52.010;5.418;2022-07-06T06:39:43;2.21;;;0.8;;
59653;SDS011;45496;52.010;5.418;2022-07-06T06:41:30;3.7;;;0.9;;
59653;SDS011;45496;52.010;5.418;2022-07-06T06:43:16;2.21;;;0.8;;
59653;SDS011;45496;52.010;5.418;2022-07-06T06:46:50;4.2;;;0.9;;
59653;SDS011;45496;52.010;5.418;2022-07-06T06:48:37;2.7;;;0.7;;
59653;SDS011;45496;52.010;5.418;2022-07-06T06:50:23;3.0;;;0.7;;
59653;SDS011;45496;52.010;5.418;2022-07-06T06:52:10;3.4;;;0.9;;
59653;SDS011;45496;52.010;5.418;2022-07-06T06:53:56;1.7;;;0.7;;
59653;SDS011;45496;52.010;5.418;2022-07-06T06:55:42;3.1;;;0.7;;
59653;SDS011;45496;52.010;5.418;2022-07-06T06:59:16;4.1;;;0.9;;
59653;SDS011;45496;52.010;5.418;2022-07-06T07:01:04;2.0;;;0.6;;
59653;SDS011;45496;52.010;5.418;2022-07-06T07:02:51;1.8;;;0.5;;
59653;SDS011;45496;52.010;5.418;2022-07-06T07:04:37;3.9;;;0.8;;
59653;SDS011;45496;52.010;5.418;2022-07-06T07:06:24;4.0;;;0.8;;
59653;SDS011;45496;52.010;5.418;2022-07-06T07:09:56;1.9;;;0.6;;
59653;SDS011;45496;52.010;5.418;2022-07-06T07:11:43;3.4;;;0.7;;
59653;SDS011;45496;52.010;5.418;2022-07-06T07:13:29;2.6;;;0.7;;
59653;SDS011;45496;52.010;5.418;2022-07-06T07:15:16;4.3;;;0.8;;
59653;SDS011;45496;52.010;5.418;2022-07-06T07:17:03;4.8;;;0.8;;
59653;SDS011;45496;52.010;5.418;2022-07-06T07:18:50;5.11;;;0.8;;
59653;SDS011;45496;52.010;5.418;2022-07-06T07:22:24;4.5;;;0.8;;
59653;SDS011;45496;52.010;5.418;2022-07-06T07:24:10;2.31;;;0.4;;
59653;SDS011;45496;52.010;5.418;2022-07-06T07:25:56;3.8;;;0.7;;
59653;SDS011;45496;52.010;5.418;2022-07-06T07:27:42;4.2;;;0.6;;
59653;SDS011;45496;52.010;5.418;2022-07-06T07:29:29;4.41;;;0.9;;
59653;SDS011;45496;52.010;5.418;2022-07-06T07:31:15;4.0;;;0.7;;
59653;SDS011;45496;52.010;5.418;2022-07-06T07:34:47;2.9;;;0.6;;
59653;SDS011;45496;52.010;5.418;2022-07-06T07:36:34;3.5;;;0.5;;
59653;SDS011;45496;52.010;5.418;2022-07-06T07:38:20;4.41;;;0.6;;
59653;SDS011;45496;52.010;5.418;2022-07-06T07:40:07;2.21;;;0.5;;
59653;SDS011;45496;52.010;5.418;2022-07-06T07:41:53;3.9;;;0.6;;
59653;SDS011;45496;52.010;5.418;2022-07-06T07:45:25;4.2;;;0.6;;
59653;SDS011;45496;52.010;5.418;2022-07-06T07:47:11;2.1;;;0.4;;
59653;SDS011;45496;52.010;5.418;2022-07-06T07:48:58;3.8;;;0.5;;
59653;SDS011;45496;52.010;5.418;2022-07-06T07:50:45;3.7;;;0.7;;
59653;SDS011;45496;52.010;5.418;2022-07-06T07:52:31;4.0;;;0.7;;
59653;SDS011;45496;52.010;5.418;2022-07-06T07:54:18;3.7;;;0.7;;
59653;SDS011;45496;52.010;5.418;2022-07-06T07:57:52;5.3;;;0.6;;
59653;SDS011;45496;52.010;5.418;2022-07-06T07:59:38;3.6;;;0.5;;
59653;SDS011;45496;52.010;5.418;2022-07-06T08:01:24;4.5;;;0.6;;
59653;SDS011;45496;52.010;5.418;2022-07-06T08:03:11;4.0;;;0.6;;
59653;SDS011;45496;52.010;5.418;2022-07-06T08:04:58;2.31;;;0.6;;
59653;SDS011;45496;52.010;5.418;2022-07-06T08:08:32;2.4;;;0.6;;
59653;SDS011;45496;52.010;5.418;2022-07-06T08:10:18;3.5;;;0.5;;
59653;SDS011;45496;52.010;5.418;2022-07-06T08:12:05;3.2;;;0.5;;
59653;SDS011;45496;52.010;5.418;2022-07-06T08:13:52;4.61;;;0.6;;
59653;SDS011;45496;52.010;5.418;2022-07-06T08:15:39;3.7;;;0.7;;
59653;SDS011;45496;52.010;5.418;2022-07-06T08:17:27;2.21;;;0.5;;
59653;SDS011;45496;52.010;5.418;2022-07-06T08:21:02;3.0;;;0.6;;
59653;SDS011;45496;52.010;5.418;2022-07-06T08:22:49;1.8;;;0.4;;
59653;SDS011;45496;52.010;5.418;2022-07-06T08:24:35;3.5;;;0.5;;
59653;SDS011;45496;52.010;5.418;2022-07-06T08:26:23;3.1;;;0.7;;
59653;SDS011;45496;52.010;5.418;2022-07-06T08:28:09;2.6;;;0.6;;
59653;SDS011;45496;52.010;5.418;2022-07-06T08:29:56;2.1;;;0.5;;
59653;SDS011;45496;52.010;5.418;2022-07-06T08:33:29;2.21;;;0.6;;
59653;SDS011;45496;52.010;5.418;2022-07-06T08:35:15;2.7;;;0.5;;
59653;SDS011;45496;52.010;5.418;2022-07-06T08:37:03;1.7;;;0.4;;
59653;SDS011;45496;52.010;5.418;2022-07-06T08:38:49;2.7;;;0.5;;
59653;SDS011;45496;52.010;5.418;2022-07-06T08:40:36;2.4;;;0.4;;
59653;SDS011;45496;52.010;5.418;2022-07-06T08:42:27;2.31;;;0.4;;
59653;SDS011;45496;52.010;5.418;2022-07-06T08:46:06;3.2;;;0.3;;
59653;SDS011;45496;52.010;5.418;2022-07-06T08:47:54;2.4;;;0.4;;
59653;SDS011;45496;52.010;5.418;2022-07-06T08:49:44;2.9;;;0.5;;
59653;SDS011;45496;52.010;5.418;2022-07-06T08:51:31;2.31;;;0.6;;
59653;SDS011;45496;52.010;5.418;2022-07-06T08:53:17;1.9;;;0.4;;
59653;SDS011;45496;52.010;5.418;2022-07-06T08:55:04;4.61;;;0.6;;
59653;SDS011;45496;52.010;5.418;2022-07-06T08:58:42;3.0;;;0.6;;
59653;SDS011;45496;52.010;5.418;2022-07-06T09:00:29;1.5;;;0.4;;
59653;SDS011;45496;52.010;5.418;2022-07-06T09:02:18;5.6;;;0.7;;
59653;SDS011;45496;52.010;5.418;2022-07-06T09:04:09;2.7;;;0.5;;
59653;SDS011;45496;52.010;5.418;2022-07-06T09:05:59;4.0;;;0.7;;
59653;SDS011;45496;52.010;5.418;2022-07-06T09:07:49;3.8;;;0.4;;
59653;SDS011;45496;52.010;5.418;2022-07-06T09:09:37;2.21;;;0.5;;
59653;SDS011;45496;52.010;5.418;2022-07-06T09:13:12;2.5;;;0.4;;
59653;SDS011;45496;52.010;5.418;2022-07-06T09:14:58;1.5;;;0.4;;
59653;SDS011;45496;52.010;5.418;2022-07-06T09:16:44;2.1;;;0.5;;
59653;SDS011;45496;52.010;5.418;2022-07-06T09:18:36;3.1;;;0.4;;
59653;SDS011;45496;52.010;5.418;2022-07-06T09:20:25;4.3;;;0.4;;
59653;SDS011;45496;52.010;5.418;2022-07-06T09:22:24;4.3;;;0.4;;
59653;SDS011;45496;52.010;5.418;2022-07-06T09:26:01;1.3;;;0.3;;
59653;SDS011;45496;52.010;5.418;2022-07-06T09:27:50;1.0;;;0.3;;
59653;SDS011;45496;52.010;5.418;2022-07-06T09:29:43;1.6;;;0.3;;
59653;SDS011;45496;52.010;5.418;2022-07-06T09:31:32;3.4;;;0.4;;
59653;SDS011;45496;52.010;5.418;2022-07-06T09:33:18;2.4;;;0.4;;
59653;SDS011;45496;52.010;5.418;2022-07-06T09:35:04;3.0;;;0.4;;
59653;SDS011;45496;52.010;5.418;2022-07-06T09:36:51;2.31;;;0.4;;
59653;SDS011;45496;52.010;5.418;2022-07-06T09:40:24;1.7;;;0.3;;
59653;SDS011;45496;52.010;5.418;2022-07-06T09:42:11;1.11;;;0.3;;
59653;SDS011;45496;52.010;5.418;2022-07-06T09:43:57;2.0;;;0.4;;
59653;SDS011;45496;52.010;5.418;2022-07-06T09:45:44;2.4;;;0.5;;
59653;SDS011;45496;52.010;5.418;2022-07-06T09:47:32;1.7;;;0.3;;
59653;SDS011;45496;52.010;5.418;2022-07-06T09:51:07;2.0;;;0.4;;
59653;SDS011;45496;52.010;5.418;2022-07-06T09:52:54;2.31;;;0.4;;
59653;SDS011;45496;52.010;5.418;2022-07-06T09:54:41;1.6;;;0.4;;
59653;SDS011;45496;52.010;5.418;2022-07-06T09:56:35;2.8;;;0.4;;
59653;SDS011;45496;52.010;5.418;2022-07-06T09:58:22;3.1;;;0.5;;
59653;SDS011;45496;52.010;5.418;2022-07-06T10:00:09;2.6;;;0.4;;
59653;SDS011;45496;52.010;5.418;2022-07-06T10:01:57;1.2;;;0.3;;
59653;SDS011;45496;52.010;5.418;2022-07-06T10:05:35;3.0;;;0.3;;
59653;SDS011;45496;52.010;5.418;2022-07-06T10:07:23;1.6;;;0.4;;
59653;SDS011;45496;52.010;5.418;2022-07-06T10:09:12;2.8;;;0.5;;
59653;SDS011;45496;52.010;5.418;2022-07-06T10:11:00;4.91;;;0.5;;
59653;SDS011;45496;52.010;5.418;2022-07-06T10:12:49;1.8;;;0.3;;
59653;SDS011;45496;52.010;5.418;2022-07-06T10:14:36;1.3;;;0.4;;
59653;SDS011;45496;52.010;5.418;2022-07-06T10:18:12;2.31;;;0.4;;
59653;SDS011;45496;52.010;5.418;2022-07-06T10:19:59;2.4;;;0.4;;
59653;SDS011;45496;52.010;5.418;2022-07-06T10:21:48;6.1;;;1.0;;
59653;SDS011;45496;52.010;5.418;2022-07-06T10:23:36;3.4;;;0.5;;
59653;SDS011;45496;52.010;5.418;2022-07-06T10:25:22;2.1;;;0.4;;
59653;SDS011;45496;52.010;5.418;2022-07-06T10:27:10;3.7;;;0.3;;
59653;SDS011;45496;52.010;5.418;2022-07-06T10:30:46;1.11;;;0.3;;
59653;SDS011;45496;52.010;5.418;2022-07-06T10:32:36;1.6;;;0.3;;
59653;SDS011;45496;52.010;5.418;2022-07-06T10:34:25;3.2;;;0.3;;
59653;SDS011;45496;52.010;5.418;2022-07-06T10:36:12;2.21;;;0.4;;
59653;SDS011;45496;52.010;5.418;2022-07-06T10:38:03;3.8;;;0.4;;
59653;SDS011;45496;52.010;5.418;2022-07-06T10:42:56;2.8;;;0.5;;
59653;SDS011;45496;52.010;5.418;2022-07-06T10:44:45;2.4;;;0.5;;
59653;SDS011;45496;52.010;5.418;2022-07-06T10:46:32;2.0;;;0.2;;
59653;SDS011;45496;52.010;5.418;2022-07-06T10:48:22;2.21;;;0.3;;
59653;SDS011;45496;52.010;5.418;2022-07-06T10:50:08;2.21;;;0.4;;
59653;SDS011;45496;52.010;5.418;2022-07-06T10:53:44;2.31;;;0.3;;
59653;SDS011;45496;52.010;5.418;2022-07-06T10:55:31;1.3;;;0.2;;
59653;SDS011;45496;52.010;5.418;2022-07-06T10:57:20;1.3;;;0.2;;
59653;SDS011;45496;52.010;5.418;2022-07-06T10:59:08;1.11;;;0.3;;
59653;SDS011;45496;52.010;5.418;2022-07-06T11:00:56;1.5;;;0.4;;
59653;SDS011;45496;52.010;5.418;2022-07-06T11:02:42;3.1;;;0.3;;
59653;SDS011;45496;52.010;5.418;2022-07-06T11:06:18;2.9;;;0.4;;
59653;SDS011;45496;52.010;5.418;2022-07-06T11:08:08;2.4;;;0.3;;
59653;SDS011;45496;52.010;5.418;2022-07-06T11:09:57;2.31;;;0.3;;
59653;SDS011;45496;52.010;5.418;2022-07-06T11:11:47;3.2;;;0.4;;
59653;SDS011;45496;52.010;5.418;2022-07-06T11:13:38;1.3;;;0.3;;
59653;SDS011;45496;52.010;5.418;2022-07-06T11:16:00;1.3;;;0.3;;
59653;SDS011;45496;52.010;5.418;2022-07-06T11:18:18;1.4;;;0.3;;
59653;SDS011;45496;52.010;5.418;2022-07-06T11:20:08;2.5;;;0.4;;
59653;SDS011;45496;52.010;5.418;2022-07-06T11:21:58;2.8;;;0.3;;
59653;SDS011;45496;52.010;5.418;2022-07-06T11:23:52;4.7;;;0.4;;
59653;SDS011;45496;52.010;5.418;2022-07-06T11:25:40;1.0;;;0.3;;
59653;SDS011;45496;52.010;5.418;2022-07-06T11:29:13;1.7;;;0.6;;
59653;SDS011;45496;52.010;5.418;2022-07-06T11:31:01;1.3;;;0.3;;
59653;SDS011;45496;52.010;5.418;2022-07-06T11:32:47;1.2;;;0.3;;
59653;SDS011;45496;52.010;5.418;2022-07-06T11:34:34;0.8;;;0.4;;
59653;SDS011;45496;52.010;5.418;2022-07-06T11:36:23;1.7;;;0.3;;
59653;SDS011;45496;52.010;5.418;2022-07-06T11:38:24;1.3;;;0.3;;
59653;SDS011;45496;52.010;5.418;2022-07-06T11:42:00;1.7;;;0.3;;
59653;SDS011;45496;52.010;5.418;2022-07-06T11:43:51;3.0;;;0.5;;
59653;SDS011;45496;52.010;5.418;2022-07-06T11:45:37;1.2;;;0.4;;
59653;SDS011;45496;52.010;5.418;2022-07-06T11:47:29;1.2;;;0.3;;
59653;SDS011;45496;52.010;5.418;2022-07-06T11:49:17;1.4;;;0.3;;
59653;SDS011;45496;52.010;5.418;2022-07-06T11:52:51;2.6;;;0.3;;
59653;SDS011;45496;52.010;5.418;2022-07-06T11:56:26;2.1;;;0.3;;
59653;SDS011;45496;52.010;5.418;2022-07-06T11:58:15;1.6;;;0.5;;
59653;SDS011;45496;52.010;5.418;2022-07-06T12:00:06;1.6;;;0.2;;
59653;SDS011;45496;52.010;5.418;2022-07-06T12:01:58;2.9;;;0.5;;
59653;SDS011;45496;52.010;5.418;2022-07-06T12:03:46;2.1;;;0.4;;
59653;SDS011;45496;52.010;5.418;2022-07-06T12:05:31;1.2;;;0.3;;
59653;SDS011;45496;52.010;5.418;2022-07-06T12:09:06;2.8;;;0.3;;
59653;SDS011;45496;52.010;5.418;2022-07-06T12:10:52;2.0;;;0.7;;
59653;SDS011;45496;52.010;5.418;2022-07-06T12:12:39;3.0;;;0.4;;
59653;SDS011;45496;52.010;5.418;2022-07-06T12:14:25;1.8;;;0.4;;
59653;SDS011;45496;52.010;5.418;2022-07-06T12:16:13;0.9;;;0.3;;
59653;SDS011;45496;52.010;5.418;2022-07-06T12:18:01;2.9;;;0.4;;
59653;SDS011;45496;52.010;5.418;2022-07-06T12:21:43;2.1;;;0.4;;
59653;SDS011;45496;52.010;5.418;2022-07-06T12:23:37;1.4;;;0.4;;
59653;SDS011;45496;52.010;5.418;2022-07-06T12:25:30;2.31;;;0.4;;
59653;SDS011;45496;52.010;5.418;2022-07-06T12:27:17;2.4;;;0.4;;
59653;SDS011;45496;52.010;5.418;2022-07-06T12:29:09;2.31;;;0.5;;
59653;SDS011;45496;52.010;5.418;2022-07-06T12:30:58;3.2;;;0.5;;
59653;SDS011;45496;52.010;5.418;2022-07-06T12:32:44;1.6;;;0.4;;
59653;SDS011;45496;52.010;5.418;2022-07-06T12:36:18;3.2;;;0.4;;
59653;SDS011;45496;52.010;5.418;2022-07-06T12:38:04;1.0;;;0.4;;
59653;SDS011;45496;52.010;5.418;2022-07-06T12:39:51;3.6;;;0.7;;
59653;SDS011;45496;52.010;5.418;2022-07-06T12:41:41;1.7;;;0.5;;
59653;SDS011;45496;52.010;5.418;2022-07-06T12:43:38;2.21;;;0.5;;
59653;SDS011;45496;52.010;5.418;2022-07-06T12:45:26;2.7;;;0.6;;
59653;SDS011;45496;52.010;5.418;2022-07-06T12:47:12;1.4;;;0.4;;
59653;SDS011;45496;52.010;5.418;2022-07-06T12:51:01;2.5;;;0.6;;
59653;SDS011;45496;52.010;5.418;2022-07-06T12:52:47;3.3;;;0.6;;
59653;SDS011;45496;52.010;5.418;2022-07-06T12:54:34;3.0;;;0.8;;
59653;SDS011;45496;52.010;5.418;2022-07-06T12:56:26;2.31;;;0.6;;
59653;SDS011;45496;52.010;5.418;2022-07-06T12:58:17;1.8;;;0.6;;
59653;SDS011;45496;52.010;5.418;2022-07-06T13:00:06;1.9;;;0.4;;
59653;SDS011;45496;52.010;5.418;2022-07-06T13:01:56;1.7;;;0.6;;
59653;SDS011;45496;52.010;5.418;2022-07-06T13:05:30;1.6;;;0.4;;
59653;SDS011;45496;52.010;5.418;2022-07-06T13:07:18;5.8;;;0.4;;
59653;SDS011;45496;52.010;5.418;2022-07-06T13:09:04;2.7;;;0.5;;
59653;SDS011;45496;52.010;5.418;2022-07-06T13:10:50;1.2;;;0.3;;
59653;SDS011;45496;52.010;5.418;2022-07-06T13:12:36;2.0;;;0.5;;
59653;SDS011;45496;52.010;5.418;2022-07-06T13:14:24;3.5;;;0.5;;
59653;SDS011;45496;52.010;5.418;2022-07-06T13:17:57;2.4;;;0.5;;
59653;SDS011;45496;52.010;5.418;2022-07-06T13:19:44;3.3;;;0.6;;
59653;SDS011;45496;52.010;5.418;2022-07-06T13:21:31;1.6;;;0.3;;
59653;SDS011;45496;52.010;5.418;2022-07-06T13:23:17;2.5;;;0.5;;
59653;SDS011;45496;52.010;5.418;2022-07-06T13:25:05;2.8;;;0.5;;